Ann Arbor, MI

8:27 PM EST on March 06, 2015 (GMT -0500)
Walker Briar Works | Change Station
CLOSE
Current Station
Personal Weather Station
Location: Ann Arbor, MI
Elevation: 961 ft
Nearby Weather Stations

Elev 961 ft 42.26 °N, 83.77 °W | Updated 7 minutes ago

Mostly Cloudy
Mostly Cloudy
18.5 °F
Feels Like 18 °F
N
1.6
Wind Variable Wind from SE
Gusts 6.0 mph

Today
High -- | Low -- °F
--% Chance of Precip.
Yesterday
High -- | Low -- °F
Precip. -- in
7:02 AM 6:30 PM
Full, 98% visible
Pressure 30.28 in
Visibility 10.0 miles
Clouds Few 8000 ft
Mostly Cloudy 12000 ft
Windchill 18 °F
Dew Point 11 °F
Humidity 71%
Rainfall in
Snow Depth Not available.
UV 0 out of 12
Pollen .80 out of 12
Air Quality Not available.
Flu Activity Not available.
METAR KARB 070053Z 21008KT 10SM FEW080 BKN120 M07/M12 A3022 RMK AO2 SLP253 T10671122

More Conditions Fewer Conditions

Pressure 30.28 in
Visibility 10.0 miles
Clouds Few 8000 ft
Mostly Cloudy 12000 ft
Windchill 18 °F
Dew Point 11 °F
Humidity 71%
Rainfall in
Snow Depth Not available.
UV 0 out of 12
Pollen .80 out of 12
Air Quality Not available.
Flu Activity Not available.
METAR KARB 070053Z 21008KT 10SM FEW080 BKN120 M07/M12 A3022 RMK AO2 SLP253 T10671122

More Conditions Fewer Conditions

10-Day Weather Forecast

Almanac

Astronomy

Mar. 06, 2015 Rise Set
Actual Time
Civil Twilight
Nautical Twilight
Astronomical Twilight
Moon
Length of Visible Light
Length of Day
Tomorrow will be .
, % of the Moon is Illuminated

Today's Extremes

State Highs State Lows

Community

WunderPhotos

Upload Photos

1,803,482 photos uploaded!

WunderBlogs® & News

Nearby

Air Quality

  Air Quality AQ Index Pollutant
Not available.

Snow Depth

Station Depth Elevation

Earthquake Activity

City Distance Mag. Time & Date
Minimum magnitude displayed is 2.5.

Coastal Water Temperatures

Place Temperature

Nearby Weather Stations